Time;durP1;ratioP1;P1;durP2;ratioP2;P2;SDS_P1;SDS_P2;PMS_P1;PMS_P2;Temp;Humidity;BMP_temperature;BMP_pressure;BME280_temperature;BME280_humidity;BME280_pressure;Samples;Min_cycle;Max_cycle;Signal;HPM_P1;HPM_P2
2022/11/29 00:01:30;;;;;;;709.28;54.75;;;7.60;99.90;;;;;;5074821;28;20062;-44
2022/11/29 00:03:56;;;;;;;635.33;48.95;;;7.30;99.90;;;;;;5075162;28;20052;-44
2022/11/29 00:06:27;;;;;;;691.45;52.55;;;7.60;99.90;;;;;;5074622;28;20048;-44
2022/11/29 00:08:55;;;;;;;660.17;52.47;;;7.60;99.90;;;;;;5075922;28;20044;-44
2022/11/29 00:14:10;;;;;;;715.17;52.50;;;7.00;99.90;;;;;;5075095;28;20048;-44
2022/11/29 00:16:36;;;;;;;653.88;49.65;;;7.60;99.90;;;;;;5073633;28;20092;-44
2022/11/29 00:19:02;;;;;;;658.45;52.05;;;7.10;99.90;;;;;;5075685;28;20049;-44
2022/11/29 00:21:28;;;;;;;601.53;49.03;;;7.20;99.90;;;;;;5074491;28;20437;-44
2022/11/29 00:23:54;;;;;;;584.97;47.17;;;7.10;99.90;;;;;;5074768;28;20494;-44
2022/11/29 00:26:20;;;;;;;645.80;49.83;;;7.30;99.90;;;;;;5073560;28;20079;-44
2022/11/29 00:28:46;;;;;;;557.25;46.65;;;6.90;99.90;;;;;;5074651;28;20045;-44
2022/11/29 00:31:15;;;;;;;686.03;55.50;;;7.10;99.90;;;;;;5074971;28;20056;-44
2022/11/29 00:33:41;;;;;;;615.22;48.42;;;7.00;99.90;;;;;;5074638;28;20087;-44
2022/11/29 00:36:07;;;;;;;677.72;53.30;;;7.30;99.90;;;;;;5074336;28;20479;-44
2022/11/29 00:38:33;;;;;;;684.67;53.60;;;7.50;99.90;;;;;;5057120;28;20098;-44
2022/11/29 00:40:58;;;;;;;648.30;51.88;;;7.20;99.90;;;;;;5073728;28;20060;-44
2022/11/29 00:43:24;;;;;;;588.10;50.72;;;6.80;99.90;;;;;;5057610;28;20374;-44
2022/11/29 00:45:49;;;;;;;625.55;50.03;;;7.50;99.90;;;;;;5074271;28;20504;-44
2022/11/29 00:48:15;;;;;;;531.55;46.72;;;6.80;99.90;;;;;;5074274;28;20041;-44
2022/11/29 00:50:41;;;;;;;557.35;48.65;;;7.50;99.90;;;;;;5073409;28;20086;-44
2022/11/29 00:53:06;;;;;;;520.45;46.00;;;7.30;99.90;;;;;;5074238;28;20040;-45
2022/11/29 00:55:32;;;;;;;622.88;51.88;;;6.80;99.90;;;;;;5074224;28;20052;-44
2022/11/29 00:57:58;;;;;;;737.47;54.78;;;6.80;99.90;;;;;;5073723;28;20044;-44
2022/11/29 01:00:23;;;;;;;761.85;57.88;;;7.50;99.90;;;;;;5055951;28;20055;-44
2022/11/29 01:02:49;;;;;;;721.33;59.45;;;6.80;99.90;;;;;;5072836;28;20048;-44
2022/11/29 01:05:15;;;;;;;708.25;57.75;;;7.40;99.90;;;;;;5073973;28;20067;-44
2022/11/29 01:07:40;;;;;;;501.23;46.38;;;7.20;99.90;;;;;;5073880;28;20135;-45
2022/11/29 01:10:07;;;;;;;595.95;52.78;;;7.40;99.90;;;;;;5073923;28;20048;-44
2022/11/29 01:12:36;;;;;;;563.35;53.10;;;7.40;99.90;;;;;;5073837;28;20043;-44
2022/11/29 01:15:03;;;;;;;600.17;51.70;;;7.50;99.90;;;;;;5073805;28;20052;-44
2022/11/29 01:17:29;;;;;;;637.10;55.35;;;6.90;99.90;;;;;;5055768;28;20048;-44
2022/11/29 01:19:55;;;;;;;702.72;56.65;;;6.80;99.90;;;;;;5072811;28;20049;-44
2022/11/29 01:22:21;;;;;;;743.40;59.88;;;7.10;99.90;;;;;;5074307;28;20382;-44
2022/11/29 01:24:46;;;;;;;611.85;55.67;;;7.30;99.90;;;;;;5073691;28;20056;-44
2022/11/29 01:27:12;;;;;;;527.70;50.17;;;7.40;99.90;;;;;;5056640;28;20040;-44
2022/11/29 01:29:38;;;;;;;637.03;60.20;;;7.50;99.90;;;;;;5073701;28;20502;-44
2022/11/29 01:32:04;;;;;;;376.20;43.35;;;7.30;99.90;;;;;;5074442;28;20040;-44
2022/11/29 01:34:29;;;;;;;665.13;62.47;;;7.40;99.90;;;;;;5073548;28;20406;-44
2022/11/29 01:36:55;;;;;;;649.38;60.53;;;6.70;99.90;;;;;;5074142;28;20044;-44
2022/11/29 01:39:21;;;;;;;630.22;59.45;;;6.80;99.90;;;;;;5074362;28;20459;-44
2022/11/29 01:41:46;;;;;;;683.92;65.97;;;7.00;99.90;;;;;;5072901;28;20045;-44
2022/11/29 01:44:12;;;;;;;758.38;69.18;;;7.20;99.90;;;;;;5072534;28;20086;-44
2022/11/29 01:46:46;;;;;;;723.72;65.18;;;7.30;99.90;;;;;;5072123;28;20048;-44
2022/11/29 01:49:14;;;;;;;752.30;66.95;;;7.00;99.90;;;;;;5073421;28;20040;-44
2022/11/29 01:51:46;;;;;;;807.83;70.57;;;6.90;99.90;;;;;;5073429;28;20055;-44
2022/11/29 01:54:13;;;;;;;631.83;59.08;;;7.10;99.90;;;;;;5072331;28;20080;-44
2022/11/29 01:56:40;;;;;;;635.22;58.85;;;7.10;99.90;;;;;;5072106;28;20041;-44
2022/11/29 01:59:10;;;;;;;650.67;61.42;;;6.50;99.90;;;;;;5072206;28;20110;-44
2022/11/29 02:01:37;;;;;;;793.25;70.72;;;7.10;99.90;;;;;;5073183;28;20052;-44
2022/11/29 02:04:03;;;;;;;594.25;60.40;;;7.10;99.90;;;;;;5074097;28;20122;-44
2022/11/29 02:06:29;;;;;;;592.70;61.88;;;6.90;99.90;;;;;;5073191;28;20454;-44
2022/11/29 02:08:55;;;;;;;581.67;57.33;;;6.80;99.90;;;;;;5072949;28;20509;-44
2022/11/29 02:12:06;;;;;;;688.22;66.25;;;7.00;99.90;;;;;;5074401;28;20486;-44
2022/11/29 02:14:56;;;;;;;580.65;59.83;;;7.00;99.90;;;;;;5053041;28;20474;-44
2022/11/29 02:17:42;;;;;;;507.75;57.60;;;7.00;99.90;;;;;;5077389;28;20127;-44
2022/11/29 02:20:30;;;;;;;658.88;64.97;;;6.50;99.90;;;;;;5077114;28;20053;-44
2022/11/29 02:23:21;;;;;;;789.92;70.45;;;6.30;99.90;;;;;;5075882;28;20086;-44
2022/11/29 02:26:40;;;;;;;898.80;65.55;;;6.90;99.90;;;;;;5058328;28;20470;-44
2022/11/29 02:29:12;;;;;;;779.28;69.68;;;6.30;99.90;;;;;;5060929;28;20092;-44
2022/11/29 02:32:22;;;;;;;885.25;68.95;;;6.80;99.90;;;;;;5077438;28;20211;-44
2022/11/29 02:35:02;;;;;;;861.20;68.80;;;6.30;99.90;;;;;;5065863;28;20586;-44
2022/11/29 02:37:43;;;;;;;859.58;67.00;;;6.30;99.90;;;;;;5076679;28;20139;-44
2022/11/29 02:40:38;;;;;;;870.15;64.18;;;6.60;99.90;;;;;;5076717;28;20489;-44
2022/11/29 02:43:13;;;;;;;704.25;63.45;;;5.80;99.90;;;;;;5077524;28;20094;-44
2022/11/29 02:46:12;;;;;;;622.42;61.45;;;6.40;99.90;;;;;;5077450;28;20121;-44
2022/11/29 02:49:06;;;;;;;795.13;71.00;;;6.10;99.90;;;;;;5075997;28;20056;-44
2022/11/29 02:51:38;;;;;;;662.65;65.45;;;5.80;99.90;;;;;;5076844;28;20386;-44
2022/11/29 02:54:22;;;;;;;474.58;53.40;;;6.20;99.90;;;;;;5075530;28;20132;-44
2022/11/29 02:57:12;;;;;;;456.88;54.65;;;6.50;99.90;;;;;;5076242;28;20095;-44
2022/11/29 02:59:57;;;;;;;397.05;50.13;;;6.50;99.90;;;;;;5077248;28;20053;-44
2022/11/29 03:02:51;;;;;;;325.60;48.75;;;6.20;99.90;;;;;;5076067;28;20087;-44
2022/11/29 03:05:46;;;;;;;338.02;48.45;;;6.10;99.90;;;;;;5075322;28;20547;-44
2022/11/29 03:08:34;;;;;;;374.38;49.38;;;6.60;99.90;;;;;;5074620;28;20132;-44
2022/11/29 03:11:27;;;;;;;494.65;54.95;;;6.70;99.90;;;;;;5076230;28;20084;-44
2022/11/29 03:14:05;;;;;;;472.48;54.42;;;6.70;99.90;;;;;;5076125;28;20048;-44
2022/11/29 03:16:45;;;;;;;486.10;55.25;;;6.30;99.90;;;;;;5076831;28;20037;-44
2022/11/29 03:19:25;;;;;;;572.75;59.33;;;6.40;99.90;;;;;;5076057;28;20052;-44
2022/11/29 03:22:04;;;;;;;402.38;48.75;;;6.60;99.90;;;;;;5076056;28;20174;-44
2022/11/29 03:24:52;;;;;;;331.30;47.97;;;6.30;99.90;;;;;;5074951;28;20067;-44
2022/11/29 03:27:57;;;;;;;246.25;42.05;;;5.80;99.90;;;;;;5055446;28;20074;-44
2022/11/29 03:30:23;;;;;;;309.17;44.65;;;6.30;99.90;;;;;;5073727;28;20378;-44
2022/11/29 03:32:58;;;;;;;311.65;44.10;;;5.80;99.90;;;;;;5075796;28;20102;-43
2022/11/29 03:35:39;;;;;;;342.67;46.08;;;6.00;99.90;;;;;;5075796;28;20051;-44
2022/11/29 03:38:20;;;;;;;364.17;47.42;;;6.40;99.90;;;;;;5076331;28;20389;-44
2022/11/29 03:41:04;;;;;;;378.67;47.50;;;6.30;99.90;;;;;;5074573;28;20041;-44
2022/11/29 03:43:46;;;;;;;412.73;49.97;;;5.80;99.90;;;;;;5075656;28;20056;-44
2022/11/29 03:46:22;;;;;;;407.85;52.53;;;6.30;99.90;;;;;;5074809;28;20048;-44
2022/11/29 03:48:54;;;;;;;330.23;44.70;;;5.60;99.90;;;;;;5075368;28;20044;-44
2022/11/29 03:52:00;;;;;;;377.33;50.60;;;5.80;99.90;;;;;;5074866;28;20462;-44
2022/11/29 03:55:05;;;;;;;332.10;46.55;;;5.50;99.90;;;;;;5065881;28;20053;-44
2022/11/29 03:57:39;;;;;;;415.98;53.75;;;6.30;99.90;;;;;;5050780;28;20490;-44
2022/11/29 04:00:11;;;;;;;373.55;48.10;;;6.30;99.90;;;;;;5076168;28;20079;-44
2022/11/29 04:02:46;;;;;;;363.15;50.42;;;6.20;99.90;;;;;;5075148;28;20183;-44
2022/11/29 04:05:27;;;;;;;346.20;48.10;;;5.50;99.90;;;;;;5075143;28;20131;-43
2022/11/29 04:08:11;;;;;;;314.70;46.33;;;6.20;99.90;;;;;;5075425;28;20093;-44
2022/11/29 04:11:17;;;;;;;517.03;57.10;;;6.10;99.90;;;;;;5075061;28;20044;-43
2022/11/29 04:14:12;;;;;;;728.80;64.63;;;6.20;99.90;;;;;;5075063;28;20048;-43
2022/11/29 04:16:59;;;;;;;691.00;62.72;;;5.60;99.90;;;;;;5074892;28;20194;-44
2022/11/29 04:19:34;;;;;;;793.65;65.65;;;5.90;99.90;;;;;;5074556;28;20052;-44
2022/11/29 04:22:31;;;;;;;428.13;51.25;;;5.60;99.90;;;;;;5075479;28;20113;-44
2022/11/29 04:25:29;;;;;;;703.42;60.55;;;5.40;99.90;;;;;;5074815;28;20048;-43
2022/11/29 04:28:10;;;;;;;737.67;60.58;;;5.60;99.90;;;;;;5021434;28;20357;-43
2022/11/29 04:31:01;;;;;;;682.20;61.72;;;5.30;99.90;;;;;;5074747;28;20114;-44
2022/11/29 04:33:42;;;;;;;547.05;50.33;;;5.30;99.90;;;;;;5046571;28;20383;-43
2022/11/29 04:36:22;;;;;;;433.00;48.28;;;5.10;99.90;;;;;;5074647;28;20044;-44
2022/11/29 04:39:01;;;;;;;387.90;44.95;;;5.70;99.90;;;;;;5074239;28;20402;-43
2022/11/29 04:42:02;;;;;;;424.90;49.33;;;5.10;99.90;;;;;;5075260;28;20047;-43
2022/11/29 04:44:48;;;;;;;630.75;60.05;;;5.10;99.90;;;;;;5074699;28;20040;-43
2022/11/29 04:47:56;;;;;;;520.42;52.47;;;5.70;99.90;;;;;;5074898;28;20044;-44
2022/11/29 04:50:46;;;;;;;369.85;45.88;;;5.80;99.90;;;;;;5032931;28;20124;-44
2022/11/29 04:53:29;;;;;;;431.50;49.13;;;5.80;99.90;;;;;;5032352;28;20053;-43
2022/11/29 04:56:22;;;;;;;406.52;45.22;;;5.80;99.90;;;;;;5065219;28;20056;-43
2022/11/29 04:59:16;;;;;;;296.90;41.50;;;5.90;99.90;;;;;;5074298;28;20145;-44
2022/11/29 05:02:08;;;;;;;256.90;40.67;;;5.90;99.90;;;;;;5044543;28;20063;-44
2022/11/29 05:04:43;;;;;;;187.43;37.67;;;5.20;99.90;;;;;;5072967;28;20402;-43
2022/11/29 05:07:26;;;;;;;184.25;36.58;;;5.80;99.90;;;;;;5073009;28;20050;-44
2022/11/29 05:10:04;;;;;;;178.73;35.40;;;5.30;99.90;;;;;;5074457;28;20083;-44
2022/11/29 05:12:41;;;;;;;165.27;33.60;;;5.20;99.90;;;;;;5074035;28;20044;-44
2022/11/29 05:15:37;;;;;;;139.82;31.17;;;5.40;99.90;;;;;;5074085;28;20048;-44
2022/11/29 05:18:25;;;;;;;173.57;35.38;;;5.90;99.90;;;;;;5073908;28;20056;-44
2022/11/29 05:20:54;;;;;;;143.13;33.45;;;5.80;99.90;;;;;;5073647;28;20589;-43
2022/11/29 05:23:37;;;;;;;108.75;29.90;;;5.10;99.90;;;;;;5073909;28;20451;-43
2022/11/29 05:26:13;;;;;;;126.03;30.80;;;5.10;99.90;;;;;;5073828;28;20601;-43
2022/11/29 05:28:57;;;;;;;141.20;33.65;;;5.60;99.90;;;;;;5073428;28;20356;-44
2022/11/29 05:31:31;;;;;;;134.40;31.75;;;5.90;99.90;;;;;;5073203;28;20102;-43
2022/11/29 05:34:03;;;;;;;112.88;29.83;;;5.10;99.90;;;;;;5074362;28;20052;-43
2022/11/29 05:37:04;;;;;;;128.13;31.15;;;5.80;99.90;;;;;;5072648;28;20102;-43
2022/11/29 05:40:06;;;;;;;102.55;28.98;;;5.10;99.90;;;;;;5072553;28;20517;-44
2022/11/29 05:42:56;;;;;;;131.43;31.95;;;5.70;99.90;;;;;;5073132;28;20091;-43
2022/11/29 05:45:41;;;;;;;324.70;41.08;;;5.10;99.90;;;;;;5072929;28;20449;-43
2022/11/29 05:48:44;;;;;;;263.55;38.58;;;5.60;99.90;;;;;;5074417;28;20044;-44
2022/11/29 05:51:38;;;;;;;204.77;34.67;;;5.10;99.90;;;;;;5072352;28;20052;-44
2022/11/29 05:54:24;;;;;;;174.70;33.35;;;5.00;99.90;;;;;;5073618;28;20293;-44
2022/11/29 05:57:01;;;;;;;141.80;30.65;;;4.90;99.90;;;;;;5073456;28;20056;-44
2022/11/29 05:59:29;;;;;;;235.75;37.28;;;5.40;99.90;;;;;;5073230;28;20127;-44
2022/11/29 06:02:10;;;;;;;227.73;37.75;;;4.80;99.90;;;;;;5072442;28;20059;-44
2022/11/29 06:05:00;;;;;;;272.10;42.65;;;5.40;99.90;;;;;;5073802;28;20197;-44
2022/11/29 06:07:51;;;;;;;342.63;43.85;;;5.60;99.90;;;;;;5072586;28;20052;-44
2022/11/29 06:10:19;;;;;;;366.10;45.03;;;4.70;99.90;;;;;;5074254;28;20059;-43
2022/11/29 06:13:10;;;;;;;324.85;40.97;;;4.80;99.90;;;;;;5072475;28;20041;-44
2022/11/29 06:16:17;;;;;;;342.85;42.05;;;5.30;99.90;;;;;;5074010;28;20106;-44
2022/11/29 06:19:06;;;;;;;377.30;42.03;;;5.00;99.90;;;;;;5073951;28;20048;-43
2022/11/29 06:21:47;;;;;;;279.02;39.80;;;5.40;99.90;;;;;;5073021;28;20407;-43
2022/11/29 06:24:31;;;;;;;204.82;36.08;;;5.50;99.90;;;;;;5073595;28;20102;-44
2022/11/29 06:27:14;;;;;;;182.50;34.65;;;5.40;99.90;;;;;;5073486;28;20048;-44
2022/11/29 06:29:53;;;;;;;121.90;30.20;;;4.90;99.90;;;;;;5073152;28;20060;-44
2022/11/29 06:32:55;;;;;;;102.22;29.13;;;5.70;99.90;;;;;;5073443;28;20110;-44
2022/11/29 06:35:44;;;;;;;116.78;29.17;;;5.70;99.90;;;;;;5073222;28;20052;-44
2022/11/29 06:38:15;;;;;;;79.22;25.35;;;5.20;99.90;;;;;;5072494;28;20060;-43
2022/11/29 06:40:41;;;;;;;80.00;25.70;;;5.70;99.90;;;;;;5073017;28;20077;-43
2022/11/29 06:43:07;;;;;;;78.60;24.52;;;5.50;99.90;;;;;;5073909;28;20041;-44
2022/11/29 06:45:33;;;;;;;78.22;26.58;;;5.50;99.90;;;;;;5073065;28;20045;-44
2022/11/29 06:48:04;;;;;;;75.70;25.08;;;6.10;99.90;;;;;;5072639;28;20566;-44
2022/11/29 06:50:49;;;;;;;62.35;23.80;;;5.70;99.90;;;;;;5072088;28;20123;-44
2022/11/29 06:53:40;;;;;;;64.55;23.83;;;5.80;99.90;;;;;;5073897;28;20098;-44
2022/11/29 06:56:14;;;;;;;59.15;21.67;;;6.70;99.90;;;;;;5073198;28;20041;-43
2022/11/29 06:59:04;;;;;;;54.55;21.80;;;6.60;99.90;;;;;;5074932;28;20052;-44
2022/11/29 07:01:46;;;;;;;75.30;23.42;;;6.00;99.90;;;;;;5076283;28;20060;-44
2022/11/29 07:04:38;;;;;;;59.25;22.70;;;6.20;99.90;;;;;;5076468;28;20053;-43
2022/11/29 07:07:12;;;;;;;51.75;19.73;;;6.60;99.90;;;;;;5076411;28;20041;-43
2022/11/29 07:09:38;;;;;;;55.30;20.80;;;6.40;99.90;;;;;;5076738;28;20455;-44
2022/11/29 07:12:04;;;;;;;62.13;23.40;;;6.90;99.90;;;;;;5076282;28;20055;-44
2022/11/29 07:14:30;;;;;;;61.03;22.00;;;6.10;99.90;;;;;;5077102;28;20105;-44
2022/11/29 07:17:19;;;;;;;61.08;22.45;;;6.40;99.90;;;;;;5076214;28;20554;-43
2022/11/29 07:20:02;;;;;;;66.10;22.48;;;6.70;99.90;;;;;;5076334;28;20048;-43
2022/11/29 07:22:47;;;;;;;;;;;6.00;99.90;;;;;;5076943;28;20117;-43
2022/11/29 07:25:15;;;;;;;67.45;22.77;;;6.30;99.90;;;;;;5076125;28;19920;-43
2022/11/29 07:27:57;;;;;;;68.68;22.50;;;5.90;99.90;;;;;;5075978;28;20036;-44
2022/11/29 07:30:43;;;;;;;62.28;22.10;;;5.70;99.90;;;;;;5076330;28;20084;-43
2022/11/29 07:33:23;;;;;;;56.67;22.40;;;6.30;99.90;;;;;;5075986;28;20063;-43
2022/11/29 07:36:10;;;;;;;56.67;20.85;;;5.70;99.90;;;;;;5075418;28;20505;-44
2022/11/29 07:38:55;;;;;;;57.45;20.38;;;6.30;99.90;;;;;;5075914;28;20474;-43
2022/11/29 07:41:35;;;;;;;57.78;21.73;;;5.80;99.90;;;;;;5076141;28;20488;-44
2022/11/29 07:44:17;;;;;;;55.97;19.17;;;5.80;99.90;;;;;;5076668;28;20050;-44
2022/11/29 07:46:43;;;;;;;64.15;22.05;;;5.70;99.90;;;;;;5076249;28;20131;-44
2022/11/29 07:49:10;;;;;;;59.15;21.70;;;5.80;99.90;;;;;;5075948;28;20132;-44
2022/11/29 07:51:36;;;;;;;64.20;22.33;;;6.60;99.90;;;;;;5075625;28;20044;-44
2022/11/29 07:54:02;;;;;;;61.03;21.92;;;6.60;99.90;;;;;;5075601;28;20106;-43
2022/11/29 07:56:28;;;;;;;73.57;23.90;;;6.00;99.90;;;;;;5076128;28;20045;-43
2022/11/29 07:58:53;;;;;;;61.75;21.88;;;6.70;99.90;;;;;;5074814;28;20044;-43
2022/11/29 08:01:19;;;;;;;55.75;20.65;;;6.00;99.90;;;;;;5075329;28;20407;-43
2022/11/29 08:03:45;;;;;;;55.90;20.38;;;6.30;99.90;;;;;;5075401;28;20051;-44
2022/11/29 08:06:10;;;;;;;54.78;20.80;;;6.00;99.90;;;;;;5075236;28;20060;-44
2022/11/29 08:08:36;;;;;;;47.53;18.85;;;6.30;99.90;;;;;;5075581;28;20461;-43
2022/11/29 08:11:08;;;;;;;66.05;22.00;;;6.50;99.90;;;;;;5073939;28;20115;-43
2022/11/29 08:13:34;;;;;;;57.05;19.27;;;5.90;99.90;;;;;;5075130;28;20048;-43
2022/11/29 08:16:00;;;;;;;51.60;21.42;;;6.00;99.90;;;;;;5075185;28;20040;-44
2022/11/29 08:18:25;;;;;;;61.92;20.75;;;6.40;99.90;;;;;;5073789;28;20540;-43
2022/11/29 08:20:51;;;;;;;62.58;21.35;;;6.50;99.90;;;;;;5074315;28;20040;-43
2022/11/29 08:23:17;;;;;;;57.58;19.48;;;6.50;99.90;;;;;;5074973;28;20041;-44
2022/11/29 08:25:44;;;;;;;53.90;20.27;;;6.20;99.90;;;;;;5074235;28;20049;-43
2022/11/29 08:28:09;;;;;;;65.63;21.20;;;5.80;99.90;;;;;;5074810;28;20041;-44
2022/11/29 08:30:35;;;;;;;53.58;19.40;;;6.40;99.90;;;;;;5075393;28;20135;-44
2022/11/29 08:33:01;;;;;;;62.20;21.75;;;6.10;99.90;;;;;;5073632;28;20049;-44
2022/11/29 08:35:27;;;;;;;57.58;19.40;;;5.90;99.90;;;;;;5074746;28;20044;-44
2022/11/29 08:37:54;;;;;;;58.88;21.17;;;6.30;99.90;;;;;;5075485;28;20036;-44
2022/11/29 08:40:19;;;;;;;55.15;21.33;;;6.40;99.90;;;;;;5074613;28;20083;-43
2022/11/29 08:42:45;;;;;;;62.08;21.65;;;5.90;99.90;;;;;;5074604;28;20106;-43
2022/11/29 08:45:11;;;;;;;61.67;21.00;;;6.00;99.90;;;;;;5074599;28;20052;-43
2022/11/29 08:47:37;;;;;;;62.53;20.67;;;6.50;99.90;;;;;;5073652;28;20049;-44
2022/11/29 08:50:16;;;;;;;53.35;20.45;;;6.00;99.90;;;;;;5074570;28;20170;-44
2022/11/29 08:55:32;;;;;;;63.00;21.65;;;6.50;99.90;;;;;;5074439;28;20052;-44
2022/11/29 08:58:04;;;;;;;52.35;19.60;;;6.60;99.90;;;;;;5074326;28;20374;-44
2022/11/29 09:00:30;;;;;;;71.05;21.35;;;6.20;99.90;;;;;;5074101;28;20131;-44
2022/11/29 09:03:58;;;;;;;76.00;23.35;;;6.70;99.90;;;;;;5074826;28;20060;-44
2022/11/29 09:05:42;;;;;;;60.08;21.63;;;6.20;99.90;;;;;;5073446;28;20138;-43
2022/11/29 09:08:08;;;;;;;56.35;21.63;;;6.20;99.90;;;;;;5074058;28;20048;-44
2022/11/29 09:10:33;;;;;;;60.13;22.35;;;6.40;99.90;;;;;;5072931;28;20044;-44
2022/11/29 09:12:59;;;;;;;56.33;19.58;;;6.80;99.90;;;;;;5074039;28;20050;-44
2022/11/29 09:15:25;;;;;;;60.40;21.77;;;6.50;99.90;;;;;;5074075;28;20131;-44
2022/11/29 09:17:50;;;;;;;62.60;20.55;;;7.00;99.90;;;;;;5073906;28;20098;-44
2022/11/29 09:20:16;;;;;;;54.42;20.55;;;7.00;99.90;;;;;;5072759;28;20450;-43
2022/11/29 09:22:42;;;;;;;63.33;19.90;;;6.80;99.90;;;;;;5072914;28;20105;-44
2022/11/29 09:25:07;;;;;;;61.45;19.98;;;7.00;99.90;;;;;;5074734;28;20118;-43
2022/11/29 09:27:33;;;;;;;61.03;21.75;;;7.20;99.90;;;;;;5073794;28;20071;-44
2022/11/29 09:29:59;;;;;;;58.17;19.88;;;7.50;99.90;;;;;;5073160;28;20088;-44
2022/11/29 09:32:24;;;;;;;51.75;17.20;;;7.40;99.90;;;;;;5073825;28;20047;-44
2022/11/29 09:34:50;;;;;;;57.25;20.30;;;7.40;99.90;;;;;;5056985;28;20064;-45
2022/11/29 09:37:16;;;;;;;53.85;17.92;;;7.30;99.90;;;;;;5073620;28;20056;-44
2022/11/29 09:39:41;;;;;;;53.10;17.70;;;7.70;99.90;;;;;;5073740;28;20103;-44
2022/11/29 09:42:44;;;;;;;55.90;18.17;;;7.40;99.90;;;;;;5074212;28;20045;-44
2022/11/29 09:45:18;;;;;;;58.88;19.23;;;7.80;99.90;;;;;;5074020;28;20477;-45
2022/11/29 09:47:56;;;;;;;49.53;18.85;;;7.90;99.90;;;;;;5073669;28;20052;-45
2022/11/29 09:50:46;;;;;;;50.42;18.67;;;7.40;99.90;;;;;;5074218;28;20045;-46
2022/11/29 09:53:28;;;;;;;62.70;17.38;;;7.80;99.90;;;;;;5060931;28;20040;-45
2022/11/29 09:56:18;;;;;;;53.40;17.35;;;7.70;99.90;;;;;;5053920;28;20133;-44
2022/11/29 09:59:01;;;;;;;57.72;17.98;;;8.10;99.90;;;;;;5053538;28;20060;-45
2022/11/29 10:01:45;;;;;;;55.25;16.58;;;8.00;99.90;;;;;;5053213;28;20390;-44
2022/11/29 10:04:18;;;;;;;67.22;18.23;;;7.90;99.90;;;;;;5053756;28;20052;-44
2022/11/29 10:07:12;;;;;;;55.33;17.42;;;8.10;99.90;;;;;;5053934;28;20410;-45
2022/11/29 10:09:50;;;;;;;66.20;18.95;;;8.30;99.90;;;;;;5053493;28;20052;-45
2022/11/29 10:12:22;;;;;;;49.33;15.95;;;8.70;99.90;;;;;;5053746;28;20449;-45
2022/11/29 10:14:59;;;;;;;40.80;13.80;;;8.70;99.90;;;;;;5052437;28;20399;-47
2022/11/29 10:17:47;;;;;;;54.38;16.27;;;8.40;99.90;;;;;;5053450;28;20048;-47
2022/11/29 10:20:20;;;;;;;44.97;13.98;;;8.70;99.90;;;;;;5053320;28;20481;-46
2022/11/29 10:22:56;;;;;;;54.20;15.77;;;8.70;99.90;;;;;;5053601;28;20087;-47
2022/11/29 10:25:26;;;;;;;45.00;15.60;;;8.80;99.90;;;;;;5052114;28;20546;-48
2022/11/29 10:27:53;;;;;;;42.10;14.50;;;8.90;99.90;;;;;;5053203;28;20041;-48
2022/11/29 10:30:19;;;;;;;41.30;15.18;;;;;;;;;;5053239;28;20053;-48
2022/11/29 10:32:49;;;;;;;44.50;15.93;;;9.00;99.90;;;;;;5054590;28;20455;-44
2022/11/29 10:35:17;;;;;;;40.28;15.82;;;8.90;99.90;;;;;;5057130;28;20051;-44
2022/11/29 10:37:43;;;;;;;36.28;15.98;;;8.90;99.90;;;;;;5056957;28;20550;-44
2022/11/29 10:40:18;;;;;;;42.63;17.50;;;9.00;99.90;;;;;;5057034;28;20132;-44
2022/11/29 10:42:47;;;;;;;41.03;17.25;;;9.30;99.90;;;;;;5057000;28;20055;-44
2022/11/29 10:45:32;;;;;;;41.03;16.88;;;9.40;99.90;;;;;;5056830;28;20545;-44
2022/11/29 10:48:22;;;;;;;46.38;18.92;;;9.40;99.90;;;;;;5057392;28;20048;-44
2022/11/29 10:50:49;;;;;;;45.47;19.85;;;9.30;99.90;;;;;;5056389;28;20111;-44
2022/11/29 10:53:24;;;;;;;56.17;23.13;;;9.40;99.90;;;;;;5057030;28;20072;-44
2022/11/29 10:55:56;;;;;;;41.45;19.52;;;9.30;99.90;;;;;;5061667;28;20405;-44
2022/11/29 10:58:24;;;;;;;49.60;22.58;;;9.30;99.90;;;;;;5055148;28;20045;-44
2022/11/29 11:01:05;;;;;;;38.85;20.00;;;9.60;99.90;;;;;;5036483;28;20087;-44
2022/11/29 11:03:51;;;;;;;50.03;22.35;;;9.50;99.90;;;;;;5036618;28;20057;-45
2022/11/29 11:06:22;;;;;;;48.60;23.15;;;9.50;99.90;;;;;;5068768;28;20400;-44
2022/11/29 11:08:56;;;;;;;44.58;20.83;;;9.70;99.90;;;;;;5039710;28;20052;-45
2022/11/29 11:11:31;;;;;;;47.60;22.27;;;9.70;99.90;;;;;;5047912;28;20522;-45
2022/11/29 11:13:59;;;;;;;34.35;19.80;;;9.60;99.90;;;;;;5053754;28;20102;-45
2022/11/29 11:16:25;;;;;;;35.75;19.20;;;9.60;99.90;;;;;;5057464;28;20058;-45
2022/11/29 11:18:51;;;;;;;38.25;18.02;;;9.70;99.90;;;;;;5049544;28;20044;-45
2022/11/29 11:21:20;;;;;;;24.02;14.43;;;9.70;99.90;;;;;;5046317;28;20095;-44
2022/11/29 11:23:53;;;;;;;27.55;15.00;;;9.60;99.90;;;;;;5059172;28;20037;-44
2022/11/29 11:26:20;;;;;;;31.70;15.83;;;9.60;99.90;;;;;;5076810;28;20141;-44
2022/11/29 11:29:00;;;;;;;25.02;13.20;;;9.40;99.90;;;;;;5057691;28;20491;-45
2022/11/29 11:31:31;;;;;;;30.08;13.73;;;9.40;99.90;;;;;;5054739;28;20064;-44
2022/11/29 11:34:26;;;;;;;33.67;15.32;;;9.40;99.90;;;;;;5049966;28;20518;-44
2022/11/29 11:37:09;;;;;;;31.88;15.63;;;9.30;99.90;;;;;;5059023;28;20116;-45
2022/11/29 11:39:35;;;;;;;25.65;14.38;;;9.30;99.90;;;;;;5050627;28;20487;-45
2022/11/29 11:44:48;;;;;;;34.70;16.40;;;9.30;99.90;;;;;;5055696;28;20044;-45
2022/11/29 11:47:35;;;;;;;32.83;14.95;;;9.30;99.90;;;;;;5059413;28;20372;-45
2022/11/29 11:50:01;;;;;;;24.85;13.93;;;9.30;99.90;;;;;;5058990;28;20415;-44
2022/11/29 11:52:42;;;;;;;23.10;14.07;;;9.40;99.90;;;;;;5052492;28;20048;-44
2022/11/29 11:55:20;;;;;;;22.98;13.20;;;9.40;99.90;;;;;;5057084;28;20044;-45
2022/11/29 11:58:14;;;;;;;33.05;17.60;;;9.30;99.90;;;;;;5046491;28;20046;-44
2022/11/29 12:00:48;;;;;;;29.42;16.85;;;9.40;99.90;;;;;;5047125;28;20067;-44
2022/11/29 12:03:31;;;;;;;;;;;9.30;99.90;;;;;;5052167;28;20111;-45
2022/11/29 12:06:17;;;;;;;22.48;12.82;;;9.30;99.90;;;;;;5051882;28;20375;-44
2022/11/29 12:08:46;;;;;;;20.25;11.32;;;9.30;99.90;;;;;;5042361;28;20123;-44
2022/11/29 12:11:15;;;;;;;24.15;11.98;;;9.20;99.90;;;;;;5050833;28;20388;-44
2022/11/29 12:13:46;;;;;;;20.73;11.13;;;9.40;99.90;;;;;;5071738;28;20046;-44
2022/11/29 12:16:26;;;;;;;17.05;10.50;;;9.30;99.90;;;;;;5054038;28;20486;-44
2022/11/29 12:19:01;;;;;;;16.75;9.10;;;9.30;99.90;;;;;;5067223;28;20049;-44
2022/11/29 12:21:33;;;;;;;14.13;8.80;;;9.10;99.90;;;;;;5056710;28;20076;-44
2022/11/29 12:24:20;;;;;;;14.43;7.57;;;9.10;99.90;;;;;;5049189;28;20044;-44
2022/11/29 12:26:47;;;;;;;13.55;8.43;;;8.90;99.90;;;;;;5055974;28;20099;-44
2022/11/29 12:29:15;;;;;;;30.92;24.42;;;8.90;99.90;;;;;;5031549;28;20419;-44
2022/11/29 12:31:43;;;;;;;10.63;7.50;;;8.90;99.90;;;;;;5057914;28;20510;-44
2022/11/29 12:34:41;;;;;;;11.07;7.05;;;8.80;99.90;;;;;;5034900;28;20053;-44
2022/11/29 12:37:19;;;;;;;10.63;8.23;;;8.70;99.90;;;;;;5050627;28;20052;-44
2022/11/29 12:39:55;;;;;;;8.00;7.05;;;8.70;99.90;;;;;;5049729;28;20052;-44
2022/11/29 12:42:27;;;;;;;8.73;6.45;;;8.70;99.90;;;;;;5060640;28;20037;-44
2022/11/29 12:45:01;;;;;;;10.95;7.18;;;8.60;99.90;;;;;;5058874;28;20067;-44
2022/11/29 12:47:38;;;;;;;9.85;7.18;;;8.70;99.90;;;;;;5057751;28;20041;-44
2022/11/29 12:50:04;;;;;;;9.68;6.75;;;8.60;99.90;;;;;;5056577;28;20053;-44
2022/11/29 12:52:53;;;;;;;8.70;6.45;;;8.60;99.90;;;;;;5050949;28;20052;-44
2022/11/29 12:55:40;;;;;;;11.45;9.23;;;8.50;99.90;;;;;;5058966;28;20064;-43
2022/11/29 12:58:20;;;;;;;12.60;9.35;;;8.50;99.90;;;;;;5056250;28;20132;-44
2022/11/29 13:01:21;;;;;;;14.15;10.90;;;8.60;99.90;;;;;;5053217;28;20082;-44
2022/11/29 13:04:08;;;;;;;14.30;11.05;;;8.60;99.90;;;;;;5037625;28;20048;-44
2022/11/29 13:07:01;;;;;;;15.23;11.00;;;8.50;99.90;;;;;;5050766;28;20065;-43
2022/11/29 13:09:27;;;;;;;18.00;12.95;;;8.50;99.90;;;;;;5065049;28;20406;-44
2022/11/29 13:12:14;;;;;;;13.80;12.25;;;8.50;99.90;;;;;;5072845;28;20127;-44
2022/11/29 13:14:53;;;;;;;17.30;12.60;;;8.40;99.90;;;;;;5074436;28;20049;-44
2022/11/29 13:17:24;;;;;;;17.65;13.20;;;8.30;99.90;;;;;;5074491;28;20106;-43
2022/11/29 13:19:55;;;;;;;18.73;13.88;;;8.40;99.90;;;;;;5073949;28;20095;-44
2022/11/29 13:22:48;;;;;;;18.48;13.07;;;8.30;99.90;;;;;;5074820;28;20441;-43
2022/11/29 13:25:20;;;;;;;15.20;13.27;;;8.30;99.90;;;;;;5073917;28;20053;-44
2022/11/29 13:28:04;;;;;;;16.52;13.32;;;8.20;99.90;;;;;;5073864;28;20037;-44
2022/11/29 13:30:32;;;;;;;19.10;14.32;;;8.20;99.90;;;;;;5073132;28;20386;-44